createdAt,value
2016-07-26T00:00:17.389Z,1009.51
2016-07-26T00:01:17.371Z,1009.51
2016-07-26T00:02:17.354Z,1009.53
2016-07-26T00:03:17.338Z,1009.45
2016-07-26T00:04:17.322Z,1009.47
2016-07-26T00:05:17.304Z,1009.5
2016-07-26T00:06:17.287Z,1009.44
2016-07-26T00:07:17.271Z,1009.44
2016-07-26T00:08:17.254Z,1009.41
2016-07-26T00:09:17.237Z,1009.43
2016-07-26T00:10:17.220Z,1009.48
2016-07-26T00:11:17.203Z,1009.54
2016-07-26T00:12:17.185Z,1009.54
2016-07-26T00:13:17.168Z,1009.52
2016-07-26T00:14:17.152Z,1009.52
2016-07-26T00:15:17.136Z,1009.5
2016-07-26T00:16:17.118Z,1009.5
2016-07-26T00:17:17.100Z,1009.51
2016-07-26T00:18:17.085Z,1009.47
2016-07-26T00:19:17.067Z,1009.45
2016-07-26T00:20:17.057Z,1009.47
2016-07-26T00:21:17.034Z,1009.47
2016-07-26T00:22:17.017Z,1009.47
2016-07-26T00:23:17.000Z,1009.45
2016-07-26T00:24:16.982Z,1009.44
2016-07-26T00:25:16.965Z,1009.43
2016-07-26T00:26:16.949Z,1009.4
2016-07-26T00:27:16.932Z,1009.36
2016-07-26T00:28:16.914Z,1009.34
2016-07-26T00:29:16.897Z,1009.39
2016-07-26T00:30:16.881Z,1009.41
2016-07-26T00:31:16.863Z,1009.46
2016-07-26T00:32:16.845Z,1009.44
2016-07-26T00:33:16.829Z,1009.46
2016-07-26T00:34:16.813Z,1009.42
2016-07-26T00:35:16.795Z,1009.41
2016-07-26T00:36:16.779Z,1009.4
2016-07-26T00:37:16.762Z,1009.39
2016-07-26T00:38:16.745Z,1009.44
2016-07-26T00:39:16.727Z,1009.49
2016-07-26T00:40:16.711Z,1009.49
2016-07-26T00:41:16.694Z,1009.51
2016-07-26T00:42:16.676Z,1009.51
2016-07-26T00:43:16.659Z,1009.53
2016-07-26T00:44:16.641Z,1009.48
2016-07-26T00:45:16.625Z,1009.5
2016-07-26T00:46:16.608Z,1009.47
2016-07-26T00:47:16.591Z,1009.47
2016-07-26T00:48:16.574Z,1009.44
2016-07-26T00:49:16.557Z,1009.38
2016-07-26T00:50:16.541Z,1009.4
2016-07-26T00:51:16.524Z,1009.4
2016-07-26T00:52:16.506Z,1009.43
2016-07-26T00:53:16.488Z,1009.49
2016-07-26T00:54:16.484Z,1009.57
2016-07-26T00:55:16.455Z,1009.62
2016-07-26T00:56:16.437Z,1009.71
2016-07-26T00:57:16.421Z,1009.74
2016-07-26T00:58:16.405Z,1009.73
2016-07-26T00:59:16.386Z,1009.79
2016-07-26T01:00:16.368Z,1009.78
2016-07-26T01:01:16.353Z,1009.82
2016-07-26T01:02:16.336Z,1009.84
2016-07-26T01:03:16.318Z,1009.67
2016-07-26T01:04:16.300Z,1009.71
2016-07-26T01:05:16.283Z,1009.75
2016-07-26T01:06:16.266Z,1009.76
2016-07-26T01:07:16.249Z,1009.75
2016-07-26T01:08:16.232Z,1009.75
2016-07-26T01:09:16.214Z,1009.71
2016-07-26T01:10:16.197Z,1009.6
2016-07-26T01:11:16.178Z,1009.51
2016-07-26T01:12:16.161Z,1009.48
2016-07-26T01:13:16.144Z,1009.46
2016-07-26T01:14:16.126Z,1009.52
2016-07-26T01:15:16.109Z,1009.54
2016-07-26T01:16:16.090Z,1009.53
2016-07-26T01:17:16.073Z,1009.58
2016-07-26T01:18:16.054Z,1009.57
2016-07-26T01:19:16.037Z,1009.61
2016-07-26T01:20:16.019Z,1009.63
2016-07-26T01:21:16.000Z,1009.65
2016-07-26T01:22:15.981Z,1009.65
2016-07-26T01:23:15.963Z,1009.68
2016-07-26T01:24:15.946Z,1009.63
2016-07-26T01:25:15.926Z,1009.66
2016-07-26T01:26:15.908Z,1009.68
2016-07-26T01:27:15.890Z,1009.67
2016-07-26T01:28:15.872Z,1009.69
2016-07-26T01:29:15.854Z,1009.69
2016-07-26T01:30:15.836Z,1009.72
2016-07-26T01:31:15.817Z,1009.75
2016-07-26T01:32:15.799Z,1009.76
2016-07-26T01:33:15.780Z,1009.75
2016-07-26T01:34:15.759Z,1009.71
2016-07-26T01:35:15.792Z,1009.67
2016-07-26T01:36:15.724Z,1009.66
2016-07-26T01:37:15.705Z,1009.62
2016-07-26T01:38:15.687Z,1009.61
2016-07-26T01:39:15.669Z,1009.6
2016-07-26T01:40:15.649Z,1009.61
2016-07-26T01:41:15.631Z,1009.61
2016-07-26T01:42:15.611Z,1009.62
2016-07-26T01:43:15.594Z,1009.61
2016-07-26T01:44:15.573Z,1009.57
2016-07-26T01:45:15.554Z,1009.55
2016-07-26T01:46:15.538Z,1009.58
2016-07-26T01:47:15.517Z,1009.54
2016-07-26T01:48:15.499Z,1009.58
2016-07-26T01:49:15.479Z,1009.58
2016-07-26T01:50:15.461Z,1009.6
2016-07-26T01:51:15.442Z,1009.58
2016-07-26T01:52:15.423Z,1009.62
2016-07-26T01:53:15.405Z,1009.63
2016-07-26T01:54:15.385Z,1009.59
2016-07-26T01:55:15.366Z,1009.65
2016-07-26T01:56:15.347Z,1009.61
2016-07-26T01:57:15.329Z,1009.58
2016-07-26T01:58:15.309Z,1009.61
2016-07-26T01:59:15.291Z,1009.54
2016-07-26T02:00:15.271Z,1009.54
2016-07-26T02:01:15.254Z,1009.52
2016-07-26T02:02:15.234Z,1009.53
2016-07-26T02:03:15.215Z,1009.55
2016-07-26T02:04:15.195Z,1009.56
2016-07-26T02:05:15.178Z,1009.56
2016-07-26T02:06:15.157Z,1009.55
2016-07-26T02:07:15.140Z,1009.56
2016-07-26T02:08:15.123Z,1009.6
2016-07-26T02:09:15.154Z,1009.52
2016-07-26T02:10:15.084Z,1009.55
2016-07-26T02:11:15.064Z,1009.52
2016-07-26T02:12:15.056Z,1009.52
2016-07-26T02:13:15.027Z,1009.53
2016-07-26T02:14:15.008Z,1009.57
2016-07-26T02:15:14.988Z,1009.58
2016-07-26T02:16:14.970Z,1009.56
2016-07-26T02:17:14.951Z,1009.58
2016-07-26T02:18:14.932Z,1009.58
2016-07-26T02:19:14.913Z,1009.58
2016-07-26T02:20:14.894Z,1009.58
2016-07-26T02:21:14.875Z,1009.54
2016-07-26T02:22:14.857Z,1009.55
2016-07-26T02:23:14.837Z,1009.51
2016-07-26T02:24:14.818Z,1009.52
2016-07-26T02:25:14.800Z,1009.55
2016-07-26T02:26:14.781Z,1009.55
2016-07-26T02:27:14.762Z,1009.55
2016-07-26T02:28:14.743Z,1009.57
2016-07-26T02:29:14.724Z,1009.61
2016-07-26T02:30:14.706Z,1009.64
2016-07-26T02:31:14.686Z,1009.62
2016-07-26T02:32:14.668Z,1009.6
2016-07-26T02:33:14.652Z,1009.59
2016-07-26T02:34:14.632Z,1009.6
2016-07-26T02:35:14.612Z,1009.55
2016-07-26T02:36:14.593Z,1009.61
2016-07-26T02:37:14.575Z,1009.58
2016-07-26T02:38:14.556Z,1009.6
2016-07-26T02:39:14.538Z,1009.62
2016-07-26T02:40:14.520Z,1009.59
2016-07-26T02:41:14.500Z,1009.56
2016-07-26T02:42:14.482Z,1009.61
2016-07-26T02:43:14.464Z,1009.61
2016-07-26T02:44:14.445Z,1009.56
2016-07-26T02:45:14.429Z,1009.54
2016-07-26T02:46:14.406Z,1009.6
2016-07-26T02:47:14.389Z,1009.58
2016-07-26T02:48:14.370Z,1009.57
2016-07-26T02:49:14.352Z,1009.57
2016-07-26T02:50:14.334Z,1009.58
2016-07-26T02:51:14.317Z,1009.56
2016-07-26T02:52:14.296Z,1009.5
2016-07-26T02:53:14.278Z,1009.52
2016-07-26T02:54:14.259Z,1009.53
2016-07-26T02:55:14.241Z,1009.46
2016-07-26T02:56:14.223Z,1009.45
2016-07-26T02:57:14.204Z,1009.48
2016-07-26T02:58:14.186Z,1009.45
2016-07-26T02:59:14.168Z,1009.48
2016-07-26T03:00:14.149Z,1009.49
2016-07-26T03:01:14.130Z,1009.47
2016-07-26T03:02:14.111Z,1009.45
2016-07-26T03:03:14.093Z,1009.45
2016-07-26T03:05:14.054Z,1009.43
2016-07-26T03:06:14.037Z,1009.41
2016-07-26T03:07:14.019Z,1009.44
2016-07-26T03:08:14.000Z,1009.47
2016-07-26T03:09:13.981Z,1009.46
2016-07-26T03:10:13.964Z,1009.48
2016-07-26T03:11:13.944Z,1009.47
2016-07-26T03:12:13.926Z,1009.46
2016-07-26T03:13:13.907Z,1009.41
2016-07-26T03:14:13.890Z,1009.41
2016-07-26T03:15:13.869Z,1009.43
2016-07-26T03:16:13.852Z,1009.44
2016-07-26T03:17:13.832Z,1009.45
2016-07-26T03:18:13.814Z,1009.43
2016-07-26T03:20:13.776Z,1009.49
2016-07-26T03:21:13.758Z,1009.52
2016-07-26T03:22:13.740Z,1009.51
2016-07-26T03:23:13.719Z,1009.52
2016-07-26T03:24:13.701Z,1009.56
2016-07-26T03:25:13.683Z,1009.57
2016-07-26T03:26:13.664Z,1009.59
2016-07-26T03:27:13.645Z,1009.6
2016-07-26T03:28:13.627Z,1009.6
2016-07-26T03:29:13.608Z,1009.61
2016-07-26T03:30:13.587Z,1009.61
2016-07-26T03:31:13.569Z,1009.62
2016-07-26T03:32:13.551Z,1009.62
2016-07-26T03:33:13.532Z,1009.62
2016-07-26T03:35:13.495Z,1009.65
2016-07-26T03:36:13.476Z,1009.66
2016-07-26T03:37:13.460Z,1009.68
2016-07-26T03:38:13.439Z,1009.68
2016-07-26T03:39:13.419Z,1009.65
2016-07-26T03:40:13.399Z,1009.76
2016-07-26T03:41:13.383Z,1009.69
2016-07-26T03:42:13.363Z,1009.67
2016-07-26T03:43:13.344Z,1009.62
2016-07-26T03:44:13.324Z,1009.65
2016-07-26T03:45:13.305Z,1009.69
2016-07-26T03:46:13.288Z,1009.65
2016-07-26T03:47:13.268Z,1009.65
2016-07-26T03:48:13.248Z,1009.66
2016-07-26T03:50:13.211Z,1009.63
2016-07-26T03:51:13.192Z,1009.66
2016-07-26T03:52:13.172Z,1009.66
2016-07-26T03:53:13.155Z,1009.65
2016-07-26T03:54:13.136Z,1009.67
2016-07-26T03:55:13.115Z,1009.67
2016-07-26T03:56:13.099Z,1009.69
2016-07-26T03:57:13.084Z,1009.66
2016-07-26T03:58:13.060Z,1009.72
2016-07-26T03:59:13.040Z,1009.7
2016-07-26T04:00:13.021Z,1009.73
2016-07-26T04:01:13.003Z,1009.68
2016-07-26T04:02:12.984Z,1009.7
2016-07-26T04:03:12.965Z,1009.72
2016-07-26T04:05:12.927Z,1009.72
2016-07-26T04:06:12.908Z,1009.71
2016-07-26T04:07:12.889Z,1009.71
2016-07-26T04:08:12.875Z,1009.71
2016-07-26T04:09:12.854Z,1009.74
2016-07-26T04:10:12.834Z,1009.71
2016-07-26T04:11:12.814Z,1009.72
2016-07-26T04:12:12.797Z,1009.69
2016-07-26T04:13:12.778Z,1009.71
2016-07-26T04:14:12.759Z,1009.73
2016-07-26T04:15:12.744Z,1009.77
2016-07-26T04:16:12.723Z,1009.79
2016-07-26T04:17:12.703Z,1009.81
2016-07-26T04:18:12.690Z,1009.86
2016-07-26T04:19:12.664Z,1009.85
2016-07-26T04:20:12.648Z,1009.84
2016-07-26T04:21:12.628Z,1009.87
2016-07-26T04:22:12.610Z,1009.88
2016-07-26T04:23:12.592Z,1009.87
2016-07-26T04:24:12.574Z,1009.92
2016-07-26T04:25:12.556Z,1009.87
2016-07-26T04:26:12.537Z,1009.88
2016-07-26T04:27:12.518Z,1009.88
2016-07-26T04:28:12.498Z,1009.9
2016-07-26T04:29:12.480Z,1009.91
2016-07-26T04:30:12.463Z,1009.93
2016-07-26T04:31:12.444Z,1009.96
2016-07-26T04:32:12.427Z,1009.94
2016-07-26T04:33:12.408Z,1009.95
2016-07-26T04:34:12.389Z,1009.94
2016-07-26T04:35:12.371Z,1009.99
2016-07-26T04:36:12.353Z,1009.93
2016-07-26T04:37:12.334Z,1009.95
2016-07-26T04:38:12.316Z,1009.96
2016-07-26T04:39:12.297Z,1009.98
2016-07-26T04:40:12.278Z,1010
2016-07-26T04:41:12.261Z,1010
2016-07-26T04:42:12.242Z,1009.98
2016-07-26T04:43:12.225Z,1009.98
2016-07-26T04:44:12.207Z,1010
2016-07-26T04:45:12.190Z,1010.04
2016-07-26T04:46:12.170Z,1010.01
2016-07-26T04:47:12.153Z,1009.99
2016-07-26T04:48:12.133Z,1010
2016-07-26T04:49:12.118Z,1010
2016-07-26T04:50:12.098Z,1010.01
2016-07-26T04:51:12.080Z,1010.01
2016-07-26T04:52:12.062Z,1009.91
2016-07-26T04:53:12.045Z,1009.89
2016-07-26T04:54:12.026Z,1009.84
2016-07-26T04:55:12.012Z,1009.85
2016-07-26T04:56:11.992Z,1009.9
2016-07-26T04:57:11.972Z,1009.83
2016-07-26T04:58:11.954Z,1009.83
2016-07-26T04:59:11.937Z,1009.85
2016-07-26T05:00:11.919Z,1009.78
2016-07-26T05:01:11.902Z,1009.73
2016-07-26T05:02:11.883Z,1009.7
2016-07-26T05:03:11.868Z,1009.71
2016-07-26T05:04:11.848Z,1009.71
2016-07-26T05:05:11.830Z,1009.7
2016-07-26T05:06:11.813Z,1009.75
2016-07-26T05:07:11.796Z,1009.76
2016-07-26T05:08:11.777Z,1009.77
2016-07-26T05:09:11.758Z,1009.77
2016-07-26T05:10:11.742Z,1009.76
2016-07-26T05:11:11.725Z,1009.79
2016-07-26T05:12:11.706Z,1009.82
2016-07-26T05:13:11.687Z,1009.79
2016-07-26T05:14:11.670Z,1009.81
2016-07-26T05:15:11.707Z,1009.8
2016-07-26T05:16:11.634Z,1009.78
2016-07-26T05:17:11.618Z,1009.77
2016-07-26T05:18:11.601Z,1009.77
2016-07-26T05:19:11.582Z,1009.76
2016-07-26T05:20:11.563Z,1009.76
2016-07-26T05:21:11.547Z,1009.78
2016-07-26T05:22:11.582Z,1009.78
2016-07-26T05:23:11.511Z,1009.8
2016-07-26T05:24:11.495Z,1009.85
2016-07-26T05:25:11.476Z,1009.88
2016-07-26T05:26:11.460Z,1009.9
2016-07-26T05:27:11.443Z,1009.93
2016-07-26T05:28:11.426Z,1009.97
2016-07-26T05:29:11.407Z,1009.99
2016-07-26T05:30:11.391Z,1009.99
2016-07-26T05:31:11.374Z,1010.01
2016-07-26T05:32:11.356Z,1010.03
2016-07-26T05:33:11.339Z,1010.01
2016-07-26T05:34:11.321Z,1010.05
2016-07-26T05:35:11.305Z,1010.06
2016-07-26T05:36:11.287Z,1010.09
2016-07-26T05:37:11.271Z,1010.11
2016-07-26T05:38:11.253Z,1010.15
2016-07-26T05:39:11.237Z,1010.17
2016-07-26T05:40:11.273Z,1010.16
2016-07-26T05:41:11.260Z,1010.18
2016-07-26T05:42:11.418Z,1010.18
2016-07-26T05:43:11.274Z,1010.15
2016-07-26T05:44:11.306Z,1010.14
2016-07-26T05:45:11.135Z,1010.08
2016-07-26T05:46:11.119Z,1010.07
2016-07-26T05:47:11.104Z,1010.08
2016-07-26T05:48:11.088Z,1010.1
2016-07-26T05:49:11.071Z,1010.1
2016-07-26T05:50:11.053Z,1010.07
2016-07-26T05:51:11.037Z,1010.08
2016-07-26T05:52:11.075Z,1010.07
2016-07-26T05:53:11.004Z,1010.06
2016-07-26T05:54:10.988Z,1010.07
2016-07-26T05:55:10.974Z,1010.09
2016-07-26T05:56:10.956Z,1010.12
2016-07-26T05:57:10.939Z,1010.13
2016-07-26T05:58:10.924Z,1010.13
2016-07-26T05:59:10.908Z,1010.14
2016-07-26T06:00:10.893Z,1010.12
2016-07-26T06:01:10.879Z,1010.1
2016-07-26T06:02:10.864Z,1010.12
2016-07-26T06:03:10.900Z,1010.11
2016-07-26T06:04:10.831Z,1010.12
2016-07-26T06:05:10.815Z,1010.14
2016-07-26T06:06:10.800Z,1010.14
2016-07-26T06:07:10.784Z,1010.13
2016-07-26T06:08:10.770Z,1010.07
2016-07-26T06:09:10.753Z,1010.04
2016-07-26T06:10:10.772Z,1010.01
2016-07-26T06:11:10.767Z,1010.01
2016-07-26T06:12:10.709Z,1009.93
2016-07-26T06:13:10.694Z,1009.95
2016-07-26T06:14:10.678Z,1009.95
2016-07-26T06:15:10.663Z,1010
2016-07-26T06:16:10.648Z,1009.99
2016-07-26T06:17:10.635Z,1010.07
2016-07-26T06:18:11.010Z,1010.1
2016-07-26T06:19:10.605Z,1010.09
2016-07-26T06:20:10.591Z,1010.14
2016-07-26T06:21:10.576Z,1010.15
2016-07-26T06:22:10.563Z,1010.14
2016-07-26T06:23:10.547Z,1010.14
2016-07-26T06:24:10.533Z,1010.09
2016-07-26T06:25:10.569Z,1010.13
2016-07-26T06:26:10.554Z,1010.12
2016-07-26T06:27:10.647Z,1010.15
2016-07-26T06:28:10.573Z,1010.15
2016-07-26T06:29:10.577Z,1010.14
2016-07-26T06:30:10.499Z,1010.14
2016-07-26T06:31:10.484Z,1010.13
2016-07-26T06:32:10.471Z,1010.08
2016-07-26T06:33:10.459Z,1010.11
2016-07-26T06:34:10.445Z,1010.13
2016-07-26T06:35:10.429Z,1010.14
2016-07-26T06:36:10.417Z,1010.16
2016-07-26T06:37:10.404Z,1010.19
2016-07-26T06:38:10.391Z,1010.2
2016-07-26T06:39:10.377Z,1010.24
2016-07-26T06:40:10.311Z,1010.19
2016-07-26T06:41:10.299Z,1010.26
2016-07-26T06:42:10.326Z,1010.25
2016-07-26T06:43:10.326Z,1010.29
2016-07-26T06:44:10.260Z,1010.34
2016-07-26T06:45:10.363Z,1010.31
2016-07-26T06:46:10.308Z,1010.31
2016-07-26T06:47:10.221Z,1010.28
2016-07-26T06:48:10.358Z,1010.26
2016-07-26T06:49:10.384Z,1010.25
2016-07-26T06:50:10.287Z,1010.2
2016-07-26T06:51:10.280Z,1010.21
2016-07-26T06:52:10.300Z,1010.23
2016-07-26T06:53:10.200Z,1010.26
2016-07-26T06:54:10.288Z,1010.26
2016-07-26T06:55:10.207Z,1010.26
2016-07-26T06:56:10.107Z,1010.31
2016-07-26T06:57:10.317Z,1010.33
2016-07-26T06:58:10.360Z,1010.32
2016-07-26T06:59:10.069Z,1010.38
2016-07-26T07:00:10.407Z,1010.38
2016-07-26T07:01:10.075Z,1010.45
2016-07-26T07:02:10.319Z,1010.45
2016-07-26T07:03:10.209Z,1010.48
2016-07-26T07:04:10.324Z,1010.48
2016-07-26T07:05:10.255Z,1010.49
2016-07-26T07:06:10.015Z,1010.46
2016-07-26T07:07:10.276Z,1010.49
2016-07-26T07:08:10.181Z,1010.47
2016-07-26T07:09:10.125Z,1010.5
2016-07-26T07:10:10.149Z,1010.47
2016-07-26T07:11:10.214Z,1010.48
2016-07-26T07:12:10.072Z,1010.48
2016-07-26T07:13:10.222Z,1010.47
2016-07-26T07:14:10.249Z,1010.48
2016-07-26T07:15:10.257Z,1010.44
2016-07-26T07:16:10.107Z,1010.46
2016-07-26T07:17:10.057Z,1010.41
2016-07-26T07:18:10.241Z,1010.44
2016-07-26T07:19:10.066Z,1010.46
2016-07-26T07:20:10.068Z,1010.44
2016-07-26T07:21:10.070Z,1010.45
2016-07-26T07:22:09.996Z,1010.42
2016-07-26T07:23:10.089Z,1010.45
2016-07-26T07:24:10.001Z,1010.41
2016-07-26T07:25:10.143Z,1010.43
2016-07-26T07:26:10.078Z,1010.42
2016-07-26T07:27:10.019Z,1010.39
2016-07-26T07:28:10.227Z,1010.44
2016-07-26T07:29:10.054Z,1010.44
2016-07-26T07:30:09.888Z,1010.45
2016-07-26T07:31:09.939Z,1010.49
2016-07-26T07:32:09.974Z,1010.48
2016-07-26T07:33:09.920Z,1010.52
2016-07-26T07:34:09.944Z,1010.57
2016-07-26T07:35:09.927Z,1010.58
2016-07-26T07:36:09.972Z,1010.55
2016-07-26T07:37:09.902Z,1010.58
2016-07-26T07:38:09.831Z,1010.53
2016-07-26T07:39:09.865Z,1010.51
2016-07-26T07:40:09.802Z,1010.5
2016-07-26T07:41:09.819Z,1010.48
2016-07-26T07:42:09.783Z,1010.51
2016-07-26T07:43:09.820Z,1010.53
2016-07-26T07:44:09.743Z,1010.55
2016-07-26T07:45:09.559Z,1010.5
2016-07-26T07:46:09.602Z,1010.51
2016-07-26T07:47:09.665Z,1010.45
2016-07-26T07:48:09.638Z,1010.49
2016-07-26T07:49:09.637Z,1010.5
2016-07-26T07:50:09.721Z,1010.46
2016-07-26T07:51:09.592Z,1010.47
2016-07-26T07:52:09.525Z,1010.5
2016-07-26T07:53:09.575Z,1010.51
2016-07-26T07:54:09.554Z,1010.47
2016-07-26T07:55:09.576Z,1010.51
2016-07-26T07:56:09.491Z,1010.48
2016-07-26T07:57:09.645Z,1010.49
2016-07-26T07:58:09.472Z,1010.51
2016-07-26T07:59:09.491Z,1010.54
2016-07-26T08:00:09.428Z,1010.52
2016-07-26T08:01:09.574Z,1010.53
2016-07-26T08:02:09.647Z,1010.56
2016-07-26T08:03:09.554Z,1010.56
2016-07-26T08:04:09.421Z,1010.57
2016-07-26T08:05:09.418Z,1010.55
2016-07-26T08:06:09.372Z,1010.52
2016-07-26T08:07:09.488Z,1010.48
2016-07-26T08:08:09.408Z,1010.45
2016-07-26T08:09:09.489Z,1010.42
2016-07-26T08:10:09.295Z,1010.39
2016-07-26T08:11:09.264Z,1010.36
2016-07-26T08:12:09.371Z,1010.38
2016-07-26T08:13:09.263Z,1010.35
2016-07-26T08:14:09.151Z,1010.38
2016-07-26T08:15:09.404Z,1010.38
2016-07-26T08:16:09.199Z,1010.43
2016-07-26T08:17:09.237Z,1010.39
2016-07-26T08:18:09.097Z,1010.44
2016-07-26T08:19:09.121Z,1010.49
2016-07-26T08:20:09.129Z,1010.52
2016-07-26T08:21:09.172Z,1010.54
2016-07-26T08:22:09.186Z,1010.55
2016-07-26T08:23:09.155Z,1010.5
2016-07-26T08:24:09.292Z,1010.55
2016-07-26T08:25:09.162Z,1010.58
2016-07-26T08:26:08.977Z,1010.57
2016-07-26T08:27:08.968Z,1010.55
2016-07-26T08:28:09.049Z,1010.54
2016-07-26T08:29:08.950Z,1010.52
2016-07-26T08:30:09.021Z,1010.54
2016-07-26T08:31:08.984Z,1010.56
2016-07-26T08:32:09.118Z,1010.54
2016-07-26T08:33:09.005Z,1010.57
2016-07-26T08:34:08.925Z,1010.58
2016-07-26T08:35:08.931Z,1010.56
2016-07-26T08:36:08.860Z,1010.52
2016-07-26T08:37:08.793Z,1010.51
2016-07-26T08:38:08.781Z,1010.53
2016-07-26T08:39:08.821Z,1010.55
2016-07-26T08:40:08.823Z,1010.56
2016-07-26T08:41:08.748Z,1010.6
2016-07-26T08:42:08.733Z,1010.64
2016-07-26T08:43:08.719Z,1010.62
2016-07-26T08:44:08.755Z,1010.66
2016-07-26T08:45:08.713Z,1010.63
2016-07-26T08:46:08.759Z,1010.61
2016-07-26T08:47:08.898Z,1010.61
2016-07-26T08:48:08.864Z,1010.56
2016-07-26T08:49:08.883Z,1010.55
2016-07-26T08:50:08.710Z,1010.54
2016-07-26T08:51:08.723Z,1010.57
2016-07-26T08:52:08.647Z,1010.48
2016-07-26T08:53:08.594Z,1010.48
2016-07-26T08:54:09.007Z,1010.49
2016-07-26T08:55:09.005Z,1010.44
2016-07-26T08:56:08.969Z,1010.46
2016-07-26T08:57:08.939Z,1010.48
2016-07-26T08:58:08.964Z,1010.52
2016-07-26T08:59:08.946Z,1010.53
2016-07-26T09:00:09.113Z,1010.59
2016-07-26T09:01:08.927Z,1010.61
2016-07-26T09:02:08.867Z,1010.6
2016-07-26T09:03:09.092Z,1010.65
2016-07-26T09:04:08.586Z,1010.66
2016-07-26T09:05:08.751Z,1010.61
2016-07-26T09:06:08.733Z,1010.6
2016-07-26T09:07:08.435Z,1010.53
2016-07-26T09:08:08.462Z,1010.56
2016-07-26T09:09:08.415Z,1010.51
2016-07-26T09:10:08.776Z,1010.56
2016-07-26T09:11:08.692Z,1010.5
2016-07-26T09:12:08.580Z,1010.47
2016-07-26T09:13:08.621Z,1010.52
2016-07-26T09:14:08.487Z,1010.52
2016-07-26T09:15:08.393Z,1010.54
2016-07-26T09:16:08.406Z,1010.53
2016-07-26T09:17:08.465Z,1010.57
2016-07-26T09:18:08.576Z,1010.57
2016-07-26T09:19:08.407Z,1010.58
2016-07-26T09:20:08.367Z,1010.58
2016-07-26T09:21:08.299Z,1010.67
2016-07-26T09:22:08.489Z,1010.65
2016-07-26T09:23:08.575Z,1010.64
2016-07-26T09:24:08.512Z,1010.65
2016-07-26T09:25:08.431Z,1010.65
2016-07-26T09:26:08.487Z,1010.66
2016-07-26T09:27:08.467Z,1010.64
2016-07-26T09:28:08.301Z,1010.6
2016-07-26T09:29:08.389Z,1010.58
2016-07-26T09:30:08.434Z,1010.58
2016-07-26T09:31:08.374Z,1010.57
2016-07-26T09:32:08.346Z,1010.54
2016-07-26T09:33:08.653Z,1010.52
2016-07-26T09:34:08.377Z,1010.49
2016-07-26T09:35:08.503Z,1010.48
2016-07-26T09:36:08.297Z,1010.49
2016-07-26T09:37:08.288Z,1010.54
2016-07-26T09:38:08.437Z,1010.52
2016-07-26T09:39:08.358Z,1010.48
2016-07-26T09:40:08.360Z,1010.52
2016-07-26T09:41:08.246Z,1010.5
2016-07-26T09:42:08.313Z,1010.5
2016-07-26T09:43:08.243Z,1010.46
2016-07-26T09:44:08.330Z,1010.46
2016-07-26T09:45:08.376Z,1010.47
2016-07-26T09:46:08.409Z,1010.45
2016-07-26T09:47:08.137Z,1010.43
2016-07-26T09:48:08.101Z,1010.42
2016-07-26T09:49:08.044Z,1010.44
2016-07-26T09:50:08.032Z,1010.44
2016-07-26T09:51:08.181Z,1010.41
2016-07-26T09:52:08.029Z,1010.4
2016-07-26T09:53:08.085Z,1010.41
2016-07-26T09:54:08.016Z,1010.38
2016-07-26T09:55:07.974Z,1010.41
2016-07-26T09:56:07.966Z,1010.42
2016-07-26T09:57:07.959Z,1010.47
2016-07-26T09:58:07.993Z,1010.48
2016-07-26T09:59:07.944Z,1010.42
2016-07-26T10:00:07.935Z,1010.41
2016-07-26T10:01:07.929Z,1010.41
2016-07-26T10:02:08.069Z,1010.33
2016-07-26T10:03:07.914Z,1010.36
2016-07-26T10:04:08.086Z,1010.34
2016-07-26T10:05:08.103Z,1010.28
2016-07-26T10:06:07.895Z,1010.33
2016-07-26T10:07:08.144Z,1010.32
2016-07-26T10:08:07.934Z,1010.28
2016-07-26T10:09:07.875Z,1010.31
2016-07-26T10:10:07.869Z,1010.34
2016-07-26T10:11:07.864Z,1010.37
2016-07-26T10:12:08.054Z,1010.34
2016-07-26T10:13:07.905Z,1010.37
2016-07-26T10:14:07.907Z,1010.34
2016-07-26T10:15:08.045Z,1010.35
2016-07-26T10:16:07.976Z,1010.39
2016-07-26T10:17:07.897Z,1010.32
2016-07-26T10:18:07.825Z,1010.33
2016-07-26T10:19:08.052Z,1010.31
2016-07-26T10:20:08.053Z,1010.28
2016-07-26T10:21:07.960Z,1010.33
2016-07-26T10:22:07.868Z,1010.36
2016-07-26T10:23:07.796Z,1010.33
2016-07-26T10:24:07.872Z,1010.41
2016-07-26T10:25:07.836Z,1010.41
2016-07-26T10:26:08.104Z,1010.38
2016-07-26T10:27:07.904Z,1010.36
2016-07-26T10:28:07.885Z,1010.36
2016-07-26T10:29:07.754Z,1010.33
2016-07-26T10:30:07.799Z,1010.31
2016-07-26T10:31:07.739Z,1010.31
2016-07-26T10:32:07.788Z,1010.33
2016-07-26T10:33:07.774Z,1010.3
2016-07-26T10:34:07.768Z,1010.38
2016-07-26T10:35:07.707Z,1010.3
2016-07-26T10:36:07.697Z,1010.32
2016-07-26T10:37:07.686Z,1010.29
2016-07-26T10:38:07.678Z,1010.27
2016-07-26T10:39:07.670Z,1010.32
2016-07-26T10:40:07.688Z,1010.27
2016-07-26T10:41:07.703Z,1010.28
2016-07-26T10:42:07.642Z,1010.26
2016-07-26T10:43:07.837Z,1010.25
2016-07-26T10:44:07.648Z,1010.28
2016-07-26T10:45:07.615Z,1010.22
2016-07-26T10:46:07.607Z,1010.24
2016-07-26T10:47:07.727Z,1010.21
2016-07-26T10:48:07.703Z,1010.24
2016-07-26T10:49:07.753Z,1010.23
2016-07-26T10:50:07.630Z,1010.27
2016-07-26T10:51:07.759Z,1010.19
2016-07-26T10:52:07.559Z,1010.22
2016-07-26T10:53:07.606Z,1010.24
2016-07-26T10:54:07.729Z,1010.24
2016-07-26T10:55:07.751Z,1010.21
2016-07-26T10:56:07.894Z,1010.24
2016-07-26T10:57:07.526Z,1010.23
2016-07-26T10:58:07.522Z,1010.32
2016-07-26T10:59:07.514Z,1010.19
2016-07-26T11:00:07.508Z,1010.22
2016-07-26T11:01:07.552Z,1010.24
2016-07-26T11:02:07.496Z,1010.2
2016-07-26T11:03:07.626Z,1010.2
2016-07-26T11:04:07.534Z,1010.19
2016-07-26T11:05:07.584Z,1010.14
2016-07-26T11:06:07.733Z,1010.1
2016-07-26T11:07:07.464Z,1010.13
2016-07-26T11:08:07.510Z,1010.11
2016-07-26T11:09:07.833Z,1010.13
2016-07-26T11:10:07.597Z,1010.16
2016-07-26T11:11:07.496Z,1010.12
2016-07-26T11:12:07.603Z,1010.17
2016-07-26T11:13:07.651Z,1010.19
2016-07-26T11:14:07.428Z,1010.13
2016-07-26T11:15:07.482Z,1010.1
2016-07-26T11:16:07.421Z,1010.05
2016-07-26T11:17:07.415Z,1009.99
2016-07-26T11:18:07.411Z,1009.99
2016-07-26T11:19:07.466Z,1009.96
2016-07-26T11:21:07.455Z,1009.97
2016-07-26T11:22:07.455Z,1009.97
2016-07-26T11:23:07.393Z,1009.95
2016-07-26T11:24:07.391Z,1009.96
2016-07-26T11:25:07.386Z,1010.01
2016-07-26T11:26:07.404Z,1009.98
2016-07-26T11:27:07.427Z,1010.02
2016-07-26T11:28:07.376Z,1010
2016-07-26T11:29:07.397Z,1010.04
2016-07-26T11:30:07.423Z,1010.05
2016-07-26T11:31:07.366Z,1010.03
2016-07-26T11:32:07.396Z,1010.04
2016-07-26T11:33:07.377Z,1010
2016-07-26T11:34:07.390Z,1009.99
2016-07-26T11:35:07.454Z,1010.02
2016-07-26T11:36:07.412Z,1010
2016-07-26T11:37:07.378Z,1009.97
2016-07-26T11:38:07.418Z,1009.94
2016-07-26T11:39:07.481Z,1009.94
2016-07-26T11:40:07.335Z,1009.91
2016-07-26T11:41:07.336Z,1009.92
2016-07-26T11:42:07.330Z,1009.92
2016-07-26T11:43:07.325Z,1009.94
2016-07-26T11:44:07.323Z,1009.94
2016-07-26T11:45:07.330Z,1009.95
2016-07-26T11:46:07.317Z,1009.92
2016-07-26T11:47:07.314Z,1009.91
2016-07-26T11:48:07.313Z,1009.93
2016-07-26T11:49:07.309Z,1009.94
2016-07-26T11:50:07.356Z,1009.96
2016-07-26T11:51:07.304Z,1009.97
2016-07-26T11:52:07.303Z,1009.98
2016-07-26T11:53:07.299Z,1009.98
2016-07-26T11:54:07.297Z,1009.99
2016-07-26T11:55:07.303Z,1009.99
2016-07-26T11:56:07.293Z,1010.03
2016-07-26T11:57:07.290Z,1010
2016-07-26T11:58:07.619Z,1010.02
2016-07-26T11:59:07.284Z,1009.97
2016-07-26T12:00:07.281Z,1009.96
2016-07-26T12:01:07.298Z,1009.82
2016-07-26T12:02:07.271Z,1009.85
2016-07-26T12:03:07.309Z,1009.87
2016-07-26T12:04:07.264Z,1009.86
2016-07-26T12:05:07.504Z,1009.84
2016-07-26T12:06:07.258Z,1009.83
2016-07-26T12:07:07.463Z,1009.85
2016-07-26T12:08:07.250Z,1009.81
2016-07-26T12:09:07.370Z,1009.81
2016-07-26T12:10:07.356Z,1009.82
2016-07-26T12:11:07.348Z,1009.83
2016-07-26T12:12:07.316Z,1009.76
2016-07-26T12:13:07.235Z,1009.73
2016-07-26T12:14:07.234Z,1009.77